Flight Track Log - Related Links

Times and Time Zones

All times are in EDT time to prevent confusion due to time zone crossing. See the UPS1295 flight status page for this flight to view local times or setup timezone preferences in your user account.

Time Position Orientation Groundspeed Altitude Reporting Facility
EDT Latitude Longitude Course Direction KTS MPH feet Rate Location/Type
Tue 11:24:57 PM 35.0660 -82.0320 44° Northeast 308 354 10,800  Level FlightAware ADS-B
Tue 11:25:33 PM 35.1080 -81.9880 41° Northeast 355 409 11,800 1,750 Climbing FlightAware ADS-B
Tue 11:25:45 PM 35.1260 -81.9820 15° North 371 427 12,200 3,000 Climbing FlightAware ADS-B
Tue 11:26:13 PM 35.1770 -81.9940 349° North 391 450 13,800 3,600 Climbing FlightAware ADS-B
Tue 11:26:25 PM 35.1950 -82.0100 324° Northwest 398 458 14,600 923 Climbing FlightAware ADS-B
Tue 11:27:05 PM 35.2410 -82.0610 318° Northwest 398 458 14,600 2,591 Level FlightAware ADS-B
Tue 11:27:53 PM 35.3020 -82.1530 309° West 419 482 18,400 5,898 Climbing FlightAware ADS-B
Tue 11:28:04 PM 35.3262 -82.1794 318° Northwest 434 499 20,400 5,268 Climbing FlightAware ADS-B
Tue 11:28:34 PM 35.3705 -82.2311 316° Northwest 443 510 22,000 2,968 Climbing FlightAware ADS-B
Tue 11:29:37 PM 35.4660 -82.3390 317° Northwest 464 534 25,000 2,877 Climbing FlightAware ADS-B
Tue 11:29:47 PM 35.4824 -82.3583 316° Northwest 467 537 25,500 2,927 Climbing FlightAware ADS-B
Tue 11:30:18 PM 35.5325 -82.4153 317° Northwest 473 544 27,000 2,710 Climbing FlightAware ADS-B
Tue 11:30:49 PM 35.5820 -82.4719 317° Northwest 480 552 28,300 2,522 Climbing FlightAware ADS-B
Tue 11:31:27 PM 35.6430 -82.5420 317° Northwest 472 543 29,900 1,478 Climbing FlightAware ADS-B
Tue 11:31:58 PM 35.6902 -82.5967 317° Northwest 467 537 30,000 98 Climbing FlightAware ADS-B
Tue 11:32:28 PM 35.7394 -82.6536 317° Northwest 463 533 30,000  Level FlightAware ADS-B
Tue 11:32:58 PM 35.7861 -82.7079 317° Northwest 463 533 30,000  Level FlightAware ADS-B
Tue 11:33:37 PM 35.8380 -82.7690 316° Northwest 462 532 30,000  Level FlightAware ADS-B
Tue 11:34:08 PM 35.8937 -82.8328 317° Northwest 465 535 30,000  Level FlightAware ADS-B
Tue 11:34:38 PM 35.9420 -82.8893 317° Northwest 466 536 30,000  Level FlightAware ADS-B
Tue 11:35:09 PM 35.9898 -82.9449 317° Northwest 466 536 30,000  Level FlightAware ADS-B
Tue 11:36:10 PM 36.0590 -83.0290 316° Northwest 465 535 30,000  Level FlightAware ADS-B
Tue 11:36:19 PM 36.0962 -83.0696 319° Northwest 466 536 30,000  Level FlightAware ADS-B
Tue 11:36:49 PM 36.1475 -83.1298 317° Northwest 466 536 30,000  Level FlightAware ADS-B
Tue 11:37:19 PM 36.1944 -83.1851 316° Northwest 466 536 30,000  Level FlightAware ADS-B
Tue 11:37:53 PM 36.2460 -83.2460 316° Northwest 466 536 30,000  Level FlightAware ADS-B
Tue 11:38:28 PM 36.3006 -83.3104 316° Northwest 467 537 30,000  Level FlightAware ADS-B
Tue 11:38:59 PM 36.3500 -83.3689 316° Northwest 467 537 30,000  Level FlightAware ADS-B
Tue 11:39:30 PM 36.3975 -83.4251 316° Northwest 467 537 30,000  Level FlightAware ADS-B
Tue 11:40:11 PM 36.4590 -83.4980 316° Northwest 466 536 30,000  Level FlightAware ADS-B
Tue 11:40:38 PM 36.5024 -83.5499 316° Northwest 466 536 30,000  Level FlightAware ADS-B
Tue 11:41:08 PM 36.5514 -83.6084 316° Northwest 465 535 30,000  Level FlightAware ADS-B
Tue 11:41:42 PM 36.6039 -83.6710 316° Northwest 465 535 30,000  Level FlightAware ADS-B
Tue 11:42:35 PM 36.6490 -83.7260 316° Northwest 466 536 30,000 -174 Level FlightAware ADS-B
Tue 11:42:51 PM 36.7054 -83.7926 317° Northwest 465 535 29,800 -1,171 Descending FlightAware ADS-B
Tue 11:43:16 PM 36.7489 -83.8450 316° Northwest 467 537 29,200 -1,091 Descending FlightAware ADS-B
Tue 11:43:46 PM 36.7961 -83.9017 316° Northwest 465 535 28,800  Descending FlightAware ADS-B
Tue 11:44:23 PM 36.8350 -83.9520 314° West 466 536 29,200 -904 Climbing FlightAware ADS-B
Tue 11:44:59 PM 36.9047 -84.0329 317° Northwest 463 533 27,700 -1,701 Descending FlightAware ADS-B
Tue 11:45:30 PM 36.9548 -84.0937 316° Northwest 462 532 27,300 -885 Descending FlightAware ADS-B
Tue 11:46:00 PM 37.0015 -84.1503 316° Northwest 461 531 26,800 1,443 Descending FlightAware ADS-B
Tue 11:46:49 PM 37.0240 -84.1890 306° West 466 536 29,200 -783 Climbing FlightAware ADS-B
Tue 11:47:09 PM 37.1022 -84.2727 320° Northwest 459 528 25,900 -4,471 Descending FlightAware ADS-B
Tue 11:47:40 PM 37.1536 -84.3354 316° Northwest 458 527 25,400 -1,015 Descending FlightAware ADS-B
Tue 11:48:14 PM 37.2045 -84.3980 316° Northwest 455 524 24,800 -2,606 Descending FlightAware ADS-B
Tue 11:49:19 PM 37.2982 -84.5122 316° Northwest 436 502 21,100 -3,853 Descending FlightAware ADS-B
Tue 11:49:49 PM 37.3440 -84.5691 315° West 433 498 18,700 -3,196 Descending FlightAware ADS-B
Tue 11:51:06 PM 37.4453 -84.6936 315° West 413 475 15,400 -2,609 Descending Indianapolis Center
Tue 11:52:07 PM 37.5214 -84.7892 315° West 391 450 12,700 -2,164 Descending Indianapolis Center
Tue 11:53:08 PM 37.5986 -84.8844 316° Northwest 388 447 11,000 -1,230 Descending Indianapolis Center
Tue 11:54:09 PM 37.6575 -84.9589 315° West 304 350 10,200 -1,160 Descending Indianapolis Center
Wed 12:00:12 AM 37.8900 -85.4620 315° West 271 312 2,800 -1,133 Descending FlightAware ADS-B
Wed 12:00:41 AM 37.9040 -85.4970 297° West 271 312 2,800  Level FlightAware ADS-B
Wed 12:01:24 AM 37.9400 -85.5490 311° West 242 278 2,800  Level FlightAware ADS-B
Wed 12:01:44 AM 37.9560 -85.5680 317° Northwest 237 273 2,800  Level FlightAware ADS-B
Wed 12:02:04 AM 37.9720 -85.5860 318° Northwest 229 264 2,800  Level FlightAware ADS-B
Wed 12:02:22 AM 37.9860 -85.6030 316° Northwest 227 261 2,800  Level FlightAware ADS-B
Wed 12:02:44 AM 38.0020 -85.6210 318° Northwest 211 243 2,800  Level FlightAware ADS-B
Wed 12:03:00 AM 38.0140 -85.6340 320° Northwest 208 239 2,800  Level FlightAware ADS-B
Wed 12:03:20 AM 38.0270 -85.6500 316° Northwest 209 241 2,800 -136 Level FlightAware ADS-B
Wed 12:03:44 AM 38.0450 -85.6710 317° Northwest 200 230 2,700 -429 Descending FlightAware ADS-B
Wed 12:04:02 AM 38.0570 -85.6840 320° Northwest 195 224 2,500 -875 Descending FlightAware ADS-B
Wed 12:04:32 AM 38.0800 -85.6950 339° North 168 193 2,000 -960 Descending FlightAware ADS-B
Wed 12:04:52 AM 38.0950 -85.7000 345° North 163 188 1,700 -789 Descending FlightAware ADS-B
Wed 12:05:10 AM 38.1070 -85.7040 345° North 149 171 1,500 -818 Descending FlightAware ADS-B
Wed 12:05:36 AM 38.1250 -85.7100 345° North 149 171 1,100 -750 Descending FlightAware ADS-B
Wed 12:05:50 AM 38.1340 -85.7130 345° North 147 169 1,000 -750 Descending FlightAware ADS-B
Wed 12:06:08 AM 38.1460 -85.7170 345° North 147 169 700 -750 Descending FlightAware ADS-B
Wed 12:06:30 AM 38.1600 -85.7220 344° North 137 158 500 -545 Descending FlightAware ADS-B
Wed 12:06:56 AM 38.1740 -85.7270 344° North 105 121 -1,154 Descending FlightAware ADS-B

Login

Don't have an account? Register now (free) for customized features, flight alerts, and more!